createdAt,value
2022-11-16T00:00:17.387Z,5.93
2022-11-16T04:00:39.367Z,3.57
2022-11-16T04:03:10.225Z,4.03
2022-11-16T04:05:55.643Z,2.50
2022-11-16T04:08:41.101Z,2.83
2022-11-16T04:11:29.682Z,2.57
2022-11-16T04:14:14.991Z,3.37
2022-11-16T04:17:03.101Z,3.70
2022-11-16T04:19:48.891Z,1.97
2022-11-16T04:22:37.216Z,2.67
2022-11-16T04:25:11.193Z,2.53
2022-11-16T04:27:56.994Z,2.63
2022-11-16T04:30:24.160Z,3.23
2022-11-16T04:33:11.365Z,2.90
2022-11-16T04:35:58.289Z,2.03
2022-11-16T04:38:25.250Z,2.33
2022-11-16T04:40:52.489Z,2.57
2022-11-16T04:43:19.415Z,3.23
2022-11-16T04:46:05.647Z,1.93
2022-11-16T04:48:40.146Z,2.70
2022-11-16T04:51:07.684Z,2.87
2022-11-16T04:53:35.306Z,3.60
2022-11-16T04:56:13.928Z,3.23
2022-11-16T04:58:41.377Z,3.57
2022-11-16T05:01:09.652Z,4.90
2022-11-16T05:03:36.608Z,3.00
2022-11-16T05:06:06.093Z,3.13
2022-11-16T05:08:34.185Z,3.17
2022-11-16T05:11:01.482Z,2.73
2022-11-16T05:13:28.431Z,2.43
2022-11-16T05:15:55.364Z,2.43
2022-11-16T05:18:22.793Z,1.50
2022-11-16T05:21:01.851Z,2.27
2022-11-16T05:24:16.402Z,3.67
2022-11-16T05:26:43.349Z,3.57
2022-11-16T05:29:10.419Z,2.97
2022-11-16T05:31:40.456Z,2.60
2022-11-16T05:34:09.444Z,2.37
2022-11-16T05:36:36.391Z,3.90
2022-11-16T05:39:05.271Z,2.43
2022-11-16T05:41:36.229Z,2.77
2022-11-16T05:44:03.730Z,3.10
2022-11-16T05:46:30.796Z,3.73
2022-11-16T05:49:00.109Z,2.17
2022-11-16T05:51:27.282Z,3.10
2022-11-16T05:53:55.525Z,2.87
2022-11-16T05:56:24.918Z,3.00
2022-11-16T05:58:53.711Z,2.60
2022-11-16T06:01:20.929Z,2.40
2022-11-16T06:03:49.570Z,2.17
2022-11-16T06:06:17.824Z,2.37
2022-11-16T06:08:44.980Z,2.57
2022-11-16T06:11:16.604Z,2.97
2022-11-16T06:13:45.179Z,2.90
2022-11-16T06:16:13.130Z,2.60
2022-11-16T06:18:42.612Z,2.67
2022-11-16T06:21:09.974Z,3.53
2022-11-16T06:23:37.377Z,2.33
2022-11-16T06:26:05.181Z,3.80
2022-11-16T06:28:33.544Z,4.07
2022-11-16T06:31:02.457Z,3.00
2022-11-16T06:33:33.880Z,2.47
2022-11-16T06:36:04.306Z,3.10
2022-11-16T06:38:32.146Z,2.70
2022-11-16T06:40:59.863Z,3.00
2022-11-16T06:43:29.076Z,3.60
2022-11-16T06:45:58.225Z,3.93
2022-11-16T06:48:26.619Z,2.73
2022-11-16T06:50:54.216Z,2.83
2022-11-16T06:53:27.547Z,3.37
2022-11-16T06:56:00.370Z,2.27
2022-11-16T06:58:29.222Z,2.73
2022-11-16T07:00:56.146Z,2.83
2022-11-16T07:03:23.662Z,2.50
2022-11-16T07:05:52.284Z,2.50
2022-11-16T07:08:20.268Z,3.23
2022-11-16T07:10:47.603Z,3.50
2022-11-16T07:13:14.562Z,4.50
2022-11-16T07:15:41.649Z,2.43
2022-11-16T07:18:09.292Z,2.13
2022-11-16T07:20:38.920Z,1.80
2022-11-16T07:23:11.432Z,1.90
2022-11-16T07:25:41.426Z,2.07
2022-11-16T07:28:08.972Z,1.43
2022-11-16T07:30:36.390Z,2.40
2022-11-16T07:33:10.131Z,1.93
2022-11-16T07:36:00.090Z,1.63
2022-11-16T07:38:28.716Z,1.83
2022-11-16T07:40:59.954Z,2.17
2022-11-16T07:43:29.466Z,2.00
2022-11-16T07:48:54.110Z,1.30
2022-11-16T07:51:39.478Z,2.30
2022-11-16T07:54:19.360Z,1.00
2022-11-16T07:56:47.071Z,0.83
2022-11-16T07:59:14.060Z,0.70
2022-11-16T08:01:46.419Z,1.23
2022-11-16T08:04:15.436Z,2.00
2022-11-16T08:06:42.439Z,1.30
2022-11-16T08:09:09.729Z,0.80
2022-11-16T08:11:39.164Z,1.27
2022-11-16T08:14:06.734Z,1.90
2022-11-16T08:16:33.723Z,1.93
2022-11-16T08:19:08.604Z,1.80
2022-11-16T08:21:35.747Z,1.30
2022-11-16T08:24:03.218Z,1.67
2022-11-16T08:26:31.326Z,2.17
2022-11-16T08:29:05.769Z,1.50
2022-11-16T08:31:35.563Z,1.93
2022-11-16T08:34:09.226Z,2.17
2022-11-16T08:36:39.553Z,1.43
2022-11-16T08:39:06.500Z,0.80
2022-11-16T08:41:35.850Z,1.73
2022-11-16T08:44:02.911Z,1.20
2022-11-16T08:46:32.320Z,2.27
2022-11-16T08:49:08.781Z,1.87
2022-11-16T08:51:35.752Z,0.70
2022-11-16T08:54:06.287Z,0.70
2022-11-16T08:56:35.975Z,0.80
2022-11-16T08:59:04.044Z,1.33
2022-11-16T09:01:33.095Z,1.10
2022-11-16T09:04:00.383Z,1.13
2022-11-16T09:06:28.324Z,0.90
2022-11-16T09:08:56.199Z,1.73
2022-11-16T09:11:25.599Z,1.30
2022-11-16T09:13:54.584Z,2.13
2022-11-16T09:16:22.343Z,1.00
2022-11-16T09:18:51.920Z,2.10
2022-11-16T09:21:19.804Z,1.50
2022-11-16T09:23:47.131Z,1.73
2022-11-16T09:26:14.583Z,1.33
2022-11-16T09:28:41.578Z,1.10
2022-11-16T09:31:10.141Z,1.80
2022-11-16T09:33:37.502Z,1.17
2022-11-16T09:36:08.532Z,0.60
2022-11-16T09:39:13.959Z,0.87
2022-11-16T09:41:43.011Z,1.27
2022-11-16T09:44:18.801Z,1.10
2022-11-16T09:46:48.393Z,1.33
2022-11-16T09:49:19.443Z,1.90
2022-11-16T09:51:51.462Z,1.73
2022-11-16T09:54:22.770Z,2.07
2022-11-16T09:56:54.257Z,1.10
2022-11-16T09:59:24.752Z,1.20
2022-11-16T10:01:57.334Z,2.23
2022-11-16T10:04:30.761Z,1.20
2022-11-16T10:07:02.041Z,1.70
2022-11-16T10:09:30.063Z,1.27
2022-11-16T10:12:09.684Z,2.57
2022-11-16T10:15:04.857Z,1.90
2022-11-16T10:17:48.673Z,1.30
2022-11-16T10:20:35.995Z,2.03
2022-11-16T10:23:11.545Z,1.10
2022-11-16T10:25:43.566Z,1.07
2022-11-16T10:28:46.082Z,2.33
2022-11-16T10:31:21.429Z,2.97
2022-11-16T10:33:52.573Z,2.90
2022-11-16T10:36:21.373Z,1.33
2022-11-16T10:38:49.652Z,1.87
2022-11-16T10:41:19.757Z,1.47
2022-11-16T10:43:48.118Z,2.80
2022-11-16T10:46:20.876Z,1.70
2022-11-16T10:48:57.683Z,2.60
2022-11-16T10:51:24.682Z,2.77
2022-11-16T10:53:54.238Z,2.33
2022-11-16T10:56:24.872Z,2.73
2022-11-16T10:58:57.511Z,1.87
2022-11-16T11:01:33.936Z,1.53
2022-11-16T11:04:18.279Z,2.50
2022-11-16T11:06:47.165Z,3.00
2022-11-16T11:09:21.818Z,3.37
2022-11-16T11:12:20.692Z,2.17
2022-11-16T11:15:03.368Z,1.93
2022-11-16T11:17:32.093Z,3.03
2022-11-16T11:20:01.134Z,2.83
2022-11-16T11:22:28.295Z,2.27
2022-11-16T11:24:56.687Z,0.70
2022-11-16T11:27:25.573Z,2.30
2022-11-16T11:29:55.252Z,1.77
2022-11-16T11:32:25.969Z,3.90
2022-11-16T11:34:54.409Z,1.13
2022-11-16T11:37:25.367Z,1.93
2022-11-16T11:40:07.607Z,1.30
2022-11-16T11:42:34.610Z,1.50
2022-11-16T11:45:06.626Z,2.20
2022-11-16T11:47:58.580Z,1.80
2022-11-16T11:50:35.807Z,1.13
2022-11-16T11:53:08.074Z,1.93
2022-11-16T11:55:36.499Z,1.20
2022-11-16T11:58:05.801Z,2.53
2022-11-16T12:00:41.208Z,0.77
2022-11-16T12:03:37.636Z,1.93
2022-11-16T12:06:15.670Z,1.67
2022-11-16T12:08:58.238Z,1.90
2022-11-16T12:11:35.724Z,3.60
2022-11-16T12:14:30.121Z,3.77
2022-11-16T12:17:07.054Z,2.20
2022-11-16T12:19:49.576Z,1.77
2022-11-16T12:22:36.723Z,1.80
2022-11-16T12:25:14.757Z,1.40
2022-11-16T12:27:51.380Z,2.07
2022-11-16T12:30:20.972Z,1.70
2022-11-16T12:33:16.285Z,2.87
2022-11-16T12:35:52.032Z,2.07
2022-11-16T12:38:29.499Z,3.50
2022-11-16T12:41:16.753Z,2.60
2022-11-16T12:43:53.498Z,3.03
2022-11-16T12:46:30.066Z,1.90
2022-11-16T12:49:24.253Z,2.37
2022-11-16T12:52:01.922Z,2.17
2022-11-16T12:55:19.097Z,2.40
2022-11-16T12:57:45.316Z,3.03
2022-11-16T13:00:14.731Z,1.70
2022-11-16T13:03:10.552Z,3.47
2022-11-16T13:05:48.130Z,1.87
2022-11-16T13:08:26.895Z,1.70
2022-11-16T13:10:59.971Z,3.43
2022-11-16T13:13:36.334Z,1.80
2022-11-16T13:16:07.278Z,3.13
2022-11-16T13:18:41.332Z,2.93
2022-11-16T13:21:18.772Z,1.70
2022-11-16T13:23:55.225Z,2.70
2022-11-16T13:26:27.249Z,1.27
2022-11-16T13:29:01.414Z,1.13
2022-11-16T13:31:35.102Z,2.50
2022-11-16T13:34:06.616Z,1.30
2022-11-16T13:36:45.159Z,0.70
2022-11-16T13:39:20.392Z,1.50
2022-11-16T13:41:50.334Z,3.07
2022-11-16T13:44:57.944Z,1.33
2022-11-16T13:47:37.118Z,1.97
2022-11-16T14:25:31.852Z,1.77
2022-11-16T14:28:27.555Z,2.40
2022-11-16T14:31:06.479Z,2.10
2022-11-16T14:33:36.733Z,2.47
2022-11-16T14:36:07.084Z,1.67
2022-11-16T14:38:36.560Z,3.83
2022-11-16T14:41:07.068Z,2.30
2022-11-16T14:43:40.494Z,3.10
2022-11-16T14:46:14.339Z,2.10
2022-11-16T14:48:44.037Z,1.63
2022-11-16T14:51:14.483Z,1.63
2022-11-16T14:53:48.241Z,3.43
2022-11-16T14:56:18.251Z,2.63
2022-11-16T14:58:53.365Z,2.37
2022-11-16T15:01:24.072Z,1.40
2022-11-16T15:03:55.275Z,2.97
2022-11-16T15:06:24.574Z,2.47
2022-11-16T15:08:54.464Z,2.87
2022-11-16T15:11:47.007Z,3.03
2022-11-16T15:14:20.044Z,2.80
2022-11-16T15:16:52.038Z,3.73
2022-11-16T15:19:19.475Z,3.47
2022-11-16T15:21:55.363Z,5.57
2022-11-16T15:24:30.414Z,3.13
2022-11-16T15:27:09.411Z,3.03
2022-11-16T15:29:36.794Z,3.27
2022-11-16T15:32:04.247Z,3.10
2022-11-16T15:34:32.104Z,2.63
2022-11-16T15:36:59.039Z,1.40
2022-11-16T15:39:32.766Z,2.20
2022-11-16T15:42:04.030Z,2.37
2022-11-16T15:44:39.723Z,4.53
2022-11-16T15:47:07.014Z,4.37
2022-11-16T15:49:37.126Z,3.67
2022-11-16T15:52:05.067Z,3.60
2022-11-16T15:54:51.680Z,4.00
2022-11-16T15:57:22.039Z,6.73
2022-11-16T15:59:50.683Z,4.67
2022-11-16T16:02:20.728Z,3.90
2022-11-16T16:04:47.839Z,2.97
2022-11-16T16:07:36.582Z,9.60
2022-11-16T16:10:13.882Z,3.67
2022-11-16T16:12:50.519Z,1.70
2022-11-16T16:15:22.976Z,2.90
2022-11-16T16:17:50.774Z,61.00
2022-11-16T16:20:23.734Z,49.23
2022-11-16T16:22:51.184Z,27.63
2022-11-16T16:25:32.338Z,7.43
2022-11-16T16:28:00.680Z,39.40
2022-11-16T16:30:29.149Z,8.47
2022-11-16T16:32:56.460Z,4.03
2022-11-16T16:35:25.068Z,3.97
2022-11-16T16:37:57.468Z,5.47
2022-11-16T16:40:24.462Z,12.93
2022-11-16T16:42:53.136Z,12.67
2022-11-16T16:45:27.020Z,23.57
2022-11-16T16:47:53.832Z,15.50
2022-11-16T16:50:20.694Z,10.80
2022-11-16T16:52:47.505Z,11.87
2022-11-16T16:55:14.425Z,7.80
2022-11-16T16:57:41.299Z,5.33
2022-11-16T17:00:10.650Z,4.37
2022-11-16T17:02:38.929Z,4.20
2022-11-16T17:05:06.503Z,6.90
2022-11-16T17:07:33.634Z,8.97
2022-11-16T17:10:00.692Z,7.07
2022-11-16T17:12:27.870Z,5.90
2022-11-16T17:14:54.822Z,6.33
2022-11-16T17:17:24.299Z,8.87
2022-11-16T17:19:52.754Z,3.67
2022-11-16T17:22:20.285Z,4.63
2022-11-16T17:24:47.596Z,3.77
2022-11-16T17:27:14.502Z,3.97
2022-11-16T17:29:41.394Z,5.50
2022-11-16T17:32:08.326Z,5.47
2022-11-16T17:34:35.294Z,8.03
2022-11-16T17:37:03.689Z,5.00
2022-11-16T17:39:30.583Z,6.17
2022-11-16T17:41:57.494Z,5.40
2022-11-16T17:44:24.481Z,9.70
2022-11-16T17:46:51.345Z,9.00
2022-11-16T17:49:18.357Z,7.27
2022-11-16T17:51:45.228Z,11.63
2022-11-16T17:54:13.570Z,19.53
2022-11-16T17:56:40.524Z,24.97
2022-11-16T17:59:07.354Z,32.63
2022-11-16T18:01:34.278Z,26.93
2022-11-16T18:04:02.472Z,25.87
2022-11-16T18:06:29.426Z,20.80
2022-11-16T18:08:57.075Z,14.47
2022-11-16T18:11:27.148Z,14.13
2022-11-16T18:13:55.316Z,5.27
2022-11-16T18:16:24.067Z,4.87
2022-11-16T18:18:57.023Z,4.90
2022-11-16T18:21:24.912Z,4.83
2022-11-16T18:23:51.956Z,5.27
2022-11-16T18:26:21.653Z,5.23
2022-11-16T18:28:50.945Z,5.10
2022-11-16T18:31:19.610Z,3.87
2022-11-16T18:33:48.994Z,3.07
2022-11-16T18:36:16.453Z,3.73
2022-11-16T18:38:43.495Z,7.03
2022-11-16T18:41:17.110Z,3.70
2022-11-16T18:43:50.395Z,4.03
2022-11-16T18:46:17.709Z,5.03
2022-11-16T18:48:44.676Z,6.70
2022-11-16T18:51:11.554Z,8.77
2022-11-16T18:53:38.699Z,7.13
2022-11-16T18:56:06.792Z,8.63
2022-11-16T18:58:50.878Z,10.27
2022-11-16T19:01:22.290Z,7.07
2022-11-16T19:03:49.581Z,10.33
2022-11-16T19:06:17.762Z,8.03
2022-11-16T19:08:53.795Z,6.90
2022-11-16T19:11:22.712Z,7.23
2022-11-16T19:13:53.494Z,8.47
2022-11-16T19:16:22.553Z,8.57
2022-11-16T19:18:49.364Z,7.63
2022-11-16T19:21:18.422Z,9.90
2022-11-16T19:23:46.550Z,9.83
2022-11-16T19:26:14.988Z,8.93
2022-11-16T19:28:43.372Z,8.10
2022-11-16T19:31:13.132Z,7.70
2022-11-16T19:33:41.911Z,8.43
2022-11-16T19:36:10.281Z,8.33
2022-11-16T19:38:37.406Z,18.67
2022-11-16T19:41:04.819Z,23.17
2022-11-16T19:43:32.061Z,15.00
2022-11-16T19:46:02.617Z,28.07
2022-11-16T19:48:31.159Z,19.93
2022-11-16T19:51:04.221Z,10.47
2022-11-16T19:53:32.548Z,8.17
2022-11-16T19:55:59.655Z,10.30
2022-11-16T19:58:26.744Z,8.37
2022-11-16T20:00:59.723Z,10.53
2022-11-16T20:03:26.622Z,8.20
2022-11-16T20:05:53.538Z,8.60
2022-11-16T20:08:21.742Z,10.10
2022-11-16T20:10:48.603Z,6.63
2022-11-16T20:13:15.639Z,8.23
2022-11-16T20:15:42.487Z,7.13
2022-11-16T20:18:09.341Z,5.43
2022-11-16T20:20:36.197Z,7.23
2022-11-16T20:23:03.077Z,6.43
2022-11-16T20:25:31.310Z,8.60
2022-11-16T20:27:58.122Z,8.07
2022-11-16T20:30:25.045Z,8.10
2022-11-16T20:32:51.910Z,7.40
2022-11-16T20:35:19.340Z,8.37
2022-11-16T20:37:46.247Z,9.20
2022-11-16T20:40:13.993Z,9.60
2022-11-16T20:42:42.218Z,7.90
2022-11-16T20:45:10.634Z,6.43
2022-11-16T20:47:37.484Z,8.80
2022-11-16T20:50:05.223Z,7.83
2022-11-16T20:52:32.106Z,9.43
2022-11-16T20:54:58.945Z,8.63
2022-11-16T20:57:25.822Z,6.63
2022-11-16T20:59:54.178Z,6.27
2022-11-16T21:02:21.064Z,5.13
2022-11-16T21:04:47.926Z,4.50
2022-11-16T21:07:14.873Z,8.07
2022-11-16T21:10:00.191Z,6.37
2022-11-16T21:12:45.820Z,5.33
2022-11-16T21:15:14.025Z,8.53
2022-11-16T21:17:40.874Z,8.57
2022-11-16T21:22:55.799Z,7.03
2022-11-16T21:25:22.643Z,5.43
2022-11-16T21:27:49.541Z,5.90
2022-11-16T21:30:18.090Z,5.70
2022-11-16T21:32:45.012Z,9.57
2022-11-16T21:35:12.748Z,7.63
2022-11-16T21:37:39.595Z,7.23
2022-11-16T21:40:07.623Z,7.90
2022-11-16T21:42:34.561Z,7.17
2022-11-16T21:45:01.414Z,7.13
2022-11-16T21:47:29.908Z,7.17
2022-11-16T21:50:30.001Z,7.43
2022-11-16T21:52:44.589Z,7.07
2022-11-16T21:55:11.840Z,8.47
2022-11-16T21:57:38.735Z,7.70
2022-11-16T22:00:07.043Z,9.47
2022-11-16T22:02:39.787Z,8.23
2022-11-16T22:05:26.872Z,7.87
2022-11-16T22:07:53.846Z,6.80
2022-11-16T22:10:21.323Z,6.77
2022-11-16T22:12:48.207Z,8.03
2022-11-16T22:15:15.165Z,8.37
2022-11-16T22:17:44.145Z,7.67
2022-11-16T22:20:11.460Z,8.03
2022-11-16T22:22:38.351Z,6.03
2022-11-16T22:25:06.532Z,8.87
2022-11-16T22:27:38.577Z,6.83
2022-11-16T22:30:19.366Z,7.40
2022-11-16T22:32:47.569Z,10.67
2022-11-16T22:35:14.481Z,6.30
2022-11-16T22:37:42.305Z,8.23
2022-11-16T22:40:16.417Z,7.07
2022-11-16T22:42:44.594Z,7.73
2022-11-16T22:45:12.036Z,7.57
2022-11-16T22:47:38.906Z,9.87
2022-11-16T22:50:07.659Z,8.23
2022-11-16T22:52:34.491Z,8.67
2022-11-16T22:55:01.324Z,7.93
2022-11-16T22:57:28.173Z,7.50
2022-11-16T22:59:55.066Z,7.23
2022-11-16T23:02:21.992Z,7.23
2022-11-16T23:04:48.887Z,6.63
2022-11-16T23:07:17.152Z,8.70
2022-11-16T23:09:44.042Z,5.87
2022-11-16T23:12:29.279Z,12.37
2022-11-16T23:15:14.517Z,68.67
2022-11-16T23:17:41.393Z,54.80
2022-11-16T23:20:28.598Z,52.87
2022-11-16T23:23:15.279Z,17.70
2022-11-16T23:26:00.562Z,11.77
2022-11-16T23:28:27.465Z,9.87
2022-11-16T23:30:54.345Z,11.57
2022-11-16T23:33:41.158Z,14.07
2022-11-16T23:36:08.720Z,14.70
2022-11-16T23:38:36.949Z,14.10
2022-11-16T23:41:23.982Z,14.67
2022-11-16T23:44:00.223Z,12.43
2022-11-16T23:46:28.204Z,12.27
2022-11-16T23:48:55.281Z,12.27
2022-11-16T23:51:23.419Z,10.93
2022-11-16T23:53:52.806Z,12.07
2022-11-16T23:56:20.694Z,7.67
2022-11-16T23:58:48.089Z,10.17
